Davis Prairie, Texas
Current Conditions -  °F | °C
As of 11:15 PM on Tuesday 25 Nov 2014 (Local Time) from KLXY Reporting Station
Clear Clear  
Wind Chill: 42°   Ceiling: Unl
Heat Index: 42°   Visibility: 10mi
Dew Point: 32°   Wind: 0mph
Humidity: 67%   Direction: NA
Pressure: 30.17"   Gusts: NA
Location:  31.4027°N, 96.4988°W
Report Text: KLXY 260515Z AUTO 00000KT 10SM CLR 06/00 A3017 RMK AO2 T00570001
Loading
Personal Weather Stations






























Interactive Weather Map New forecast layout! Learn more

10-Day Weather Forecast

Advertisements
Track Severe Weather on mobile